Time;durP1;ratioP1;P1;durP2;ratioP2;P2;SDS_P1;SDS_P2;PMS_P1;PMS_P2;Temp;Humidity;BMP_temperature;BMP_pressure;BME280_temperature;BME280_humidity;BME280_pressure;Samples;Min_cycle;Max_cycle;Signal;HPM_P1;HPM_P2
2022/08/17 00:01:25;;;;;;;20.12;11.38;;;;;;;17.83;100.00;93931.77;1717825;80;21022;-50
2022/08/17 00:03:53;;;;;;;17.75;10.80;;;;;;;17.81;100.00;93940.53;1732410;81;21093;-50
2022/08/17 00:06:26;;;;;;;15.98;10.48;;;;;;;17.78;100.00;93947.09;1720984;81;21125;-50
2022/08/17 00:09:00;;;;;;;17.05;11.03;;;;;;;17.73;100.00;93945.88;1718240;82;21232;-50
2022/08/17 00:11:31;;;;;;;16.37;11.55;;;;;;;17.75;100.00;93946.73;1711676;82;21044;-50
2022/08/17 00:14:07;;;;;;;16.62;11.78;;;;;;;17.77;100.00;93941.41;1730695;82;20930;-49
2022/08/17 00:16:38;;;;;;;16.30;11.15;;;;;;;17.75;100.00;93948.13;1722852;80;21088;-50
2022/08/17 00:19:08;;;;;;;14.23;9.63;;;;;;;17.69;100.00;93941.84;1720530;81;21035;-50
2022/08/17 00:21:40;;;;;;;14.20;11.30;;;;;;;17.63;100.00;93951.59;1721486;80;21736;-50
2022/08/17 00:24:08;;;;;;;17.60;11.88;;;;;;;17.56;100.00;93949.34;1733162;80;21109;-50
2022/08/17 00:26:37;;;;;;;19.17;10.30;;;;;;;17.49;100.00;93946.34;1709733;80;21006;-50
2022/08/17 00:29:06;;;;;;;15.75;11.38;;;;;;;17.46;100.00;93943.94;1725699;80;21180;-50
2022/08/17 00:31:35;;;;;;;13.32;9.73;;;;;;;17.45;100.00;93941.68;1715519;80;21105;-50
2022/08/17 00:34:03;;;;;;;17.25;11.05;;;;;;;17.45;100.00;93942.42;1720998;80;21775;-49
2022/08/17 00:36:31;;;;;;;17.23;12.00;;;;;;;17.41;100.00;93939.16;1681620;81;21074;-49
2022/08/17 00:38:59;;;;;;;15.75;11.00;;;;;;;17.39;100.00;93945.86;1723791;80;21207;-50
2022/08/17 00:41:26;;;;;;;18.30;10.70;;;;;;;17.40;100.00;93943.82;1740061;81;20978;-49
2022/08/17 00:44:02;;;;;;;18.57;11.18;;;;;;;17.38;100.00;93943.58;1726701;81;20969;-49
2022/08/17 00:46:36;;;;;;;24.05;12.85;;;;;;;17.34;100.00;93950.81;1718746;81;21330;-50
2022/08/17 00:49:05;;;;;;;21.23;12.70;;;;;;;17.33;100.00;93961.02;1720293;81;21541;-49
2022/08/17 00:51:56;;;;;;;17.32;11.38;;;;;;;17.27;100.00;93953.33;1723418;81;21538;-48
2022/08/17 00:54:31;;;;;;;15.30;11.73;;;;;;;17.21;100.00;93953.95;1731254;82;21466;-50
2022/08/17 00:57:14;;;;;;;18.80;12.20;;;;;;;17.18;100.00;93961.92;1738842;81;21049;-50
2022/08/17 00:59:52;;;;;;;14.65;11.35;;;;;;;17.18;100.00;93966.86;1733675;80;21264;-50
2022/08/17 01:02:21;;;;;;;22.30;11.93;;;;;;;17.18;100.00;93959.91;1720968;80;21080;-51
2022/08/17 01:04:50;;;;;;;18.17;11.88;;;;;;;17.18;100.00;93954.97;1718551;81;21566;-50
2022/08/17 01:07:22;;;;;;;18.60;12.90;;;;;;;17.16;100.00;93954.11;1731730;81;21044;-50
2022/08/17 01:09:50;;;;;;;14.18;10.75;;;;;;;17.14;100.00;93947.53;1736951;82;21172;-49
2022/08/17 01:12:18;;;;;;;21.42;11.65;;;;;;;17.13;100.00;93943.23;1728807;81;21133;-49
2022/08/17 01:14:45;;;;;;;16.05;10.88;;;;;;;17.10;100.00;93953.98;1731147;80;21079;-49
2022/08/17 01:17:13;;;;;;;16.67;10.43;;;;;;;17.11;100.00;93965.23;1728543;81;21025;-49
2022/08/17 01:19:42;;;;;;;16.82;11.83;;;;;;;17.10;100.00;93968.62;1686339;82;21082;-49
2022/08/17 01:22:17;;;;;;;15.35;11.25;;;;;;;17.05;100.00;93961.06;1694698;82;21093;-49
2022/08/17 01:24:52;;;;;;;13.43;10.08;;;;;;;17.06;100.00;93960.44;1727705;80;21798;-49
2022/08/17 01:27:20;;;;;;;12.73;9.98;;;;;;;17.06;100.00;93960.44;1725047;81;21200;-49
2022/08/17 01:29:57;;;;;;;18.35;10.82;;;;;;;17.06;100.00;93962.58;1725693;82;20930;-49
2022/08/17 01:32:26;;;;;;;19.65;11.85;;;;;;;17.06;100.00;93955.63;1726903;82;20996;-50
2022/08/17 01:34:54;;;;;;;20.35;12.23;;;;;;;17.11;100.00;93962.45;1710165;81;21088;-49
2022/08/17 01:37:33;;;;;;;16.23;11.48;;;;;;;17.14;100.00;93972.55;1715198;81;21118;-49
2022/08/17 01:40:26;;;;;;;15.43;11.45;;;;;;;17.17;100.00;93968.75;1717562;80;21550;-50
2022/08/17 01:42:57;;;;;;;16.95;10.98;;;;;;;17.21;100.00;93965.07;1733024;81;20974;-50
2022/08/17 01:45:29;;;;;;;15.70;11.38;;;;;;;17.22;100.00;93962.41;1744929;80;20937;-50
2022/08/17 01:47:57;;;;;;;17.20;12.10;;;;;;;17.24;100.00;93965.47;1729021;80;21462;-51
2022/08/17 01:50:28;;;;;;;14.28;11.63;;;;;;;17.18;100.00;93961.92;1730401;81;21079;-51
2022/08/17 01:52:59;;;;;;;15.35;10.60;;;;;;;17.11;100.00;93959.67;1730242;81;20942;-51
2022/08/17 01:55:31;;;;;;;13.28;9.53;;;;;;;17.08;100.00;93956.52;1740364;81;21538;-50
2022/08/17 01:58:00;;;;;;;18.10;11.10;;;;;;;17.08;100.00;93949.58;1719198;80;21507;-50
2022/08/17 02:00:28;;;;;;;23.10;11.80;;;;;;;17.06;100.00;93947.94;1736148;80;20926;-49
2022/08/17 02:02:57;;;;;;;30.02;13.80;;;;;;;17.04;100.00;93949.83;1695616;81;21124;-50
2022/08/17 02:05:26;;;;;;;19.15;10.93;;;;;;;17.11;100.00;93945.12;1724305;81;20971;-50
2022/08/17 02:07:53;;;;;;;15.90;10.60;;;;;;;17.21;100.00;93953.95;1736513;80;21056;-49
2022/08/17 02:10:22;;;;;;;16.10;12.05;;;;;;;17.28;100.00;93938.16;1736880;81;20962;-49
2022/08/17 02:12:50;;;;;;;14.83;10.90;;;;;;;17.31;100.00;93938.52;1717712;81;21129;-50
2022/08/17 02:15:17;;;;;;;17.73;11.00;;;;;;;17.33;100.00;93954.06;1726890;81;21193;-50
2022/08/17 02:17:46;;;;;;;17.70;11.10;;;;;;;17.33;100.00;93949.27;1734218;82;21013;-50
2022/08/17 02:20:14;;;;;;;17.62;10.78;;;;;;;17.30;100.00;93955.09;1733703;82;21029;-50
2022/08/17 02:22:43;;;;;;;14.25;10.43;;;;;;;17.27;100.00;93956.11;1719425;80;21065;-50
2022/08/17 02:25:13;;;;;;;10.43;9.15;;;;;;;17.25;100.00;93961.42;1714977;80;21073;-51
2022/08/17 02:27:41;;;;;;;15.65;11.85;;;;;;;17.23;100.00;93958.37;1713035;82;21787;-50
2022/08/17 02:30:11;;;;;;;17.67;11.05;;;;;;;17.25;100.00;93968.38;1730732;82;20961;-50
2022/08/17 02:32:39;;;;;;;15.90;10.15;;;;;;;17.28;100.00;93960.40;1730157;80;21042;-51
2022/08/17 02:35:07;;;;;;;13.32;9.30;;;;;;;17.28;100.00;93961.79;1710436;80;20979;-50
2022/08/17 02:37:35;;;;;;;20.37;9.73;;;;;;;17.30;100.00;93960.64;1722546;82;21498;-50
2022/08/17 02:40:04;;;;;;;14.05;10.80;;;;;;;17.29;100.00;93965.44;1723752;82;21282;-49
2022/08/17 02:42:38;;;;;;;22.13;11.63;;;;;;;17.34;100.00;93962.55;1742440;80;21481;-50
2022/08/17 02:45:11;;;;;;;13.65;9.90;;;;;;;17.33;100.00;93962.41;1721480;81;21030;-49
2022/08/17 02:47:40;;;;;;;18.65;10.30;;;;;;;17.33;100.00;93974.91;1724026;81;22103;-49
2022/08/17 02:50:09;;;;;;;20.23;10.30;;;;;;;17.31;100.00;93976.06;1724797;81;20986;-49
2022/08/17 02:52:38;;;;;;;19.92;11.30;;;;;;;17.32;100.00;93974.80;1726733;81;21146;-50
2022/08/17 02:55:10;;;;;;;14.05;11.20;;;;;;;17.33;100.00;93977.08;1731345;82;20942;-50
2022/08/17 02:57:38;;;;;;;13.50;11.00;;;;;;;17.35;100.00;93982.91;1728573;81;21096;-49
2022/08/17 03:00:10;;;;;;;15.58;10.90;;;;;;;17.36;100.00;93983.66;1725737;81;21133;-50
2022/08/17 03:02:40;;;;;;;10.60;8.65;;;;;;;17.39;100.00;93975.06;1723838;81;21139;-49
2022/08/17 03:05:09;;;;;;;15.48;9.50;;;;;;;17.46;100.00;93974.52;1715626;81;21044;-49
2022/08/17 03:07:37;;;;;;;14.28;9.38;;;;;;;17.51;100.00;93979.95;1725217;80;20967;-49
2022/08/17 03:10:07;;;;;;;16.52;10.25;;;;;;;17.48;100.00;93977.55;1725461;80;21022;-50
2022/08/17 03:12:37;;;;;;;15.58;10.35;;;;;;;17.47;100.00;93977.43;1715531;81;21510;-50
2022/08/17 03:15:08;;;;;;;15.13;9.38;;;;;;;17.50;100.00;93982.61;1733454;80;21422;-49
2022/08/17 03:17:37;;;;;;;13.05;9.48;;;;;;;17.52;100.00;93981.47;1715902;81;21236;-49
2022/08/17 03:20:07;;;;;;;16.60;10.65;;;;;;;17.50;100.00;93964.53;1727707;81;20931;-50
2022/08/17 03:22:45;;;;;;;13.45;10.13;;;;;;;17.49;100.00;93967.20;1695126;82;20982;-50
2022/08/17 03:25:17;;;;;;;15.78;10.70;;;;;;;17.53;100.00;93981.59;1722333;80;21150;-49
2022/08/17 03:27:45;;;;;;;12.93;10.13;;;;;;;17.51;100.00;93982.73;1732767;80;20930;-49
2022/08/17 03:30:12;;;;;;;15.85;10.90;;;;;;;17.47;100.00;93978.08;1741099;81;21123;-50
2022/08/17 03:32:44;;;;;;;14.65;10.03;;;;;;;17.50;100.00;93981.22;1711916;80;21019;-50
2022/08/17 03:35:13;;;;;;;17.25;9.95;;;;;;;17.53;100.00;93973.24;1716360;80;21026;-50
2022/08/17 03:37:41;;;;;;;15.55;10.30;;;;;;;17.52;100.00;93982.23;1714486;80;21057;-50
2022/08/17 03:40:10;;;;;;;20.45;11.30;;;;;;;17.51;100.00;93983.51;1717140;80;21117;-50
2022/08/17 03:42:39;;;;;;;18.82;11.78;;;;;;;17.52;100.00;93972.50;1738365;80;21374;-50
2022/08/17 03:45:09;;;;;;;15.50;10.40;;;;;;;17.54;100.00;93978.93;1706181;83;21807;-49
2022/08/17 03:58:48;;;;;;;14.23;10.60;;;;;;;17.84;100.00;93991.72;1727909;81;20918;-49
2022/08/17 04:01:16;;;;;;;14.98;10.65;;;;;;;17.81;100.00;93987.19;1721495;80;20977;-49
2022/08/17 04:03:44;;;;;;;13.15;9.05;;;;;;;17.79;100.00;93993.16;1712801;81;21038;-49
2022/08/17 04:06:15;;;;;;;17.70;11.08;;;;;;;17.77;100.00;93991.49;1706779;81;20989;-49
2022/08/17 04:08:43;;;;;;;14.18;11.10;;;;;;;17.76;100.00;93988.59;1711155;81;21220;-51
2022/08/17 04:11:10;;;;;;;12.18;9.83;;;;;;;17.72;100.00;93992.28;1719808;80;21030;-51
2022/08/17 04:13:38;;;;;;;11.95;9.65;;;;;;;17.73;100.00;93995.18;1719895;81;20962;-51
2022/08/17 04:16:06;;;;;;;15.60;9.38;;;;;;;17.76;100.00;93999.72;1717717;80;20965;-50
2022/08/17 04:18:35;;;;;;;12.45;10.20;;;;;;;17.76;100.00;93994.16;1726111;81;21033;-50
2022/08/17 04:21:11;;;;;;;18.25;12.73;;;;;;;17.78;100.00;93997.18;1719131;81;21518;-50
2022/08/17 04:23:39;;;;;;;16.82;11.05;;;;;;;17.82;100.00;93994.27;1721331;82;20977;-49
2022/08/17 04:26:07;;;;;;;13.60;9.50;;;;;;;17.84;100.00;93993.11;1695471;82;20971;-50
2022/08/17 04:28:35;;;;;;;13.95;9.78;;;;;;;17.87;100.00;94002.47;1728035;81;21171;-49
2022/08/17 04:31:04;;;;;;;10.13;8.53;;;;;;;17.86;100.00;93992.61;1732099;81;21088;-49
2022/08/17 04:33:32;;;;;;;16.55;9.70;;;;;;;17.85;100.00;93991.10;1734106;80;21180;-49
2022/08/17 04:36:01;;;;;;;11.75;10.32;;;;;;;17.87;100.00;93993.50;1727961;80;20963;-48
2022/08/17 04:38:32;;;;;;;15.65;10.28;;;;;;;17.96;100.00;93997.38;1721825;81;21049;-50
2022/08/17 04:43:47;;;;;;;14.07;8.95;;;;;;;18.16;100.00;93997.03;1723160;81;21055;-50
2022/08/17 04:46:19;;;;;;;13.25;10.30;;;;;;;18.20;100.00;93989.16;1733704;80;21837;-50
2022/08/17 04:48:49;;;;;;;11.60;10.20;;;;;;;18.22;100.00;93999.91;1715553;81;21023;-49
2022/08/17 04:51:26;;;;;;;13.15;11.15;;;;;;;18.22;100.00;93995.73;1724249;80;21006;-49
2022/08/17 04:53:58;;;;;;;14.07;11.55;;;;;;;18.21;100.00;93996.23;1715851;80;20949;-50
2022/08/17 04:56:26;;;;;;;22.52;13.22;;;;;;;18.23;100.00;93995.85;1738931;80;21022;-53
2022/08/17 04:58:58;;;;;;;16.02;12.13;;;;;;;18.29;100.00;93992.42;1722558;80;21413;-52
2022/08/17 05:01:27;;;;;;;15.70;12.25;;;;;;;18.38;100.00;93996.93;1737138;81;21040;-50
2022/08/17 05:03:57;;;;;;;13.05;11.43;;;;;;;18.47;100.00;93994.59;1724234;81;20985;-52
2022/08/17 05:06:26;;;;;;;12.53;10.93;;;;;;;18.53;100.00;93998.12;1724339;80;20929;-50
2022/08/17 05:08:54;;;;;;;14.28;10.25;;;;;;;18.59;100.00;94000.84;1730530;82;20974;-50
2022/08/17 05:11:22;;;;;;;15.32;10.28;;;;;;;18.68;100.00;93998.50;1731518;80;21475;-50
2022/08/17 05:13:51;;;;;;;15.60;9.40;;;;;;;18.80;100.00;94000.60;1730514;80;21071;-50
2022/08/17 05:16:20;;;;;;;11.10;9.45;;;;;;;18.90;100.00;94000.38;1739185;80;21402;-51
2022/08/17 05:18:47;;;;;;;12.03;9.65;;;;;;;19.02;100.00;94006.73;1727902;80;20969;-52
2022/08/17 05:21:15;;;;;;;11.20;9.60;;;;;;;19.11;100.00;93997.30;1732574;81;20926;-51
2022/08/17 05:23:44;;;;;;;13.35;9.58;;;;;;;19.21;100.00;93997.86;1733784;81;21269;-50
2022/08/17 05:26:13;;;;;;;10.65;9.33;;;;;;;19.29;100.00;94007.19;1727440;81;21538;-50
2022/08/17 05:28:43;;;;;;;10.78;9.50;;;;;;;19.34;100.00;94000.05;1733924;82;21042;-50
2022/08/17 05:31:11;;;;;;;15.45;9.68;;;;;;;19.41;100.00;94000.20;1727422;80;21021;-50
2022/08/17 05:33:40;;;;;;;11.85;9.65;;;;;;;19.43;100.00;94001.86;1714737;81;20964;-51
2022/08/17 05:36:10;;;;;;;14.20;10.23;;;;;;;19.44;99.25;93999.81;1737091;81;21726;-50
2022/08/17 05:38:38;;;;;;;13.95;10.10;;;;;;;19.42;98.94;94003.77;1733811;81;21006;-49
2022/08/17 05:41:07;;;;;;;16.82;10.43;;;;;;;19.41;98.39;94004.39;1737055;81;21221;-50
2022/08/17 05:43:39;;;;;;;16.82;11.57;;;;;;;19.44;98.28;94008.95;1706077;83;21173;-57
2022/08/17 05:46:31;;;;;;;12.43;10.90;;;;;;;19.44;98.43;94005.39;1710065;82;20938;-50
2022/08/17 05:49:06;;;;;;;16.82;9.60;;;;;;;19.44;98.75;94007.56;1706085;82;21243;-51
2022/08/17 05:52:09;;;;;;;17.90;10.32;;;;;;;19.44;98.80;94009.58;1686851;82;21105;-54
2022/08/17 05:54:59;;;;;;;13.45;10.05;;;;;;;19.43;98.39;94009.46;1692472;82;21548;-56
2022/08/17 05:57:45;;;;;;;12.63;9.60;;;;;;;19.45;98.93;94013.88;1669211;83;21031;-54
2022/08/17 06:00:27;;;;;;;13.80;9.85;;;;;;;19.49;98.50;94014.34;1738563;79;21169;-57
2022/08/17 06:03:23;;;;;;;18.23;11.30;;;;;;;19.50;98.54;94011.66;1690835;82;21283;-55
2022/08/17 06:06:01;;;;;;;12.10;9.63;;;;;;;19.52;98.76;94004.95;1665675;84;21107;-58
2022/08/17 06:08:35;;;;;;;14.07;10.40;;;;;;;19.61;99.13;94008.15;1668199;84;21202;-55
2022/08/17 06:11:23;;;;;;;13.65;11.00;;;;;;;19.74;99.28;94004.71;1652083;84;21125;-51
2022/08/17 06:14:34;;;;;;;12.78;10.25;;;;;;;19.84;98.98;94003.06;1650307;84;21502;-50
2022/08/17 06:17:10;;;;;;;11.38;9.60;;;;;;;19.91;98.38;94001.09;1637165;83;21345;-53
2022/08/17 06:20:00;;;;;;;14.83;11.70;;;;;;;19.99;98.01;94004.17;1667172;85;21030;-54
2022/08/17 06:22:37;;;;;;;17.10;11.97;;;;;;;20.11;97.46;94006.95;1670922;81;21026;-54
2022/08/17 06:25:13;;;;;;;12.98;9.63;;;;;;;20.25;96.12;94011.36;1647459;85;21180;-52
2022/08/17 06:27:50;;;;;;;14.03;9.50;;;;;;;20.30;95.58;94008.50;1699460;83;21010;-54
2022/08/17 06:30:26;;;;;;;10.93;8.83;;;;;;;20.30;93.96;94000.75;1668088;84;21270;-53
2022/08/17 06:33:01;;;;;;;16.67;11.35;;;;;;;20.27;93.84;94008.80;1671747;82;21145;-52
2022/08/17 06:35:39;;;;;;;14.93;10.10;;;;;;;20.26;93.62;94011.47;1670871;83;21172;-53
2022/08/17 06:38:33;;;;;;;11.55;9.18;;;;;;;20.27;93.73;94000.41;1674989;84;21029;-53
2022/08/17 06:41:18;;;;;;;10.25;8.70;;;;;;;20.30;94.26;93999.34;1666255;83;21051;-54
2022/08/17 06:43:51;;;;;;;9.43;8.43;;;;;;;20.33;94.04;94002.48;1646154;84;21831;-54
2022/08/17 06:46:47;;;;;;;12.03;9.90;;;;;;;20.35;93.30;93997.15;1669423;83;21042;-53
2022/08/17 06:49:46;;;;;;;12.75;9.75;;;;;;;20.38;93.41;94006.61;1671134;83;21023;-56
2022/08/17 06:52:37;;;;;;;13.50;9.95;;;;;;;20.44;93.88;94003.11;1664853;83;21600;-52
2022/08/17 06:55:12;;;;;;;10.43;8.68;;;;;;;20.50;93.34;94011.40;1697682;83;21170;-53
2022/08/17 06:57:47;;;;;;;9.58;8.55;;;;;;;20.52;92.14;94008.20;1662888;83;21340;-52
2022/08/17 07:00:21;;;;;;;10.60;8.68;;;;;;;20.55;91.43;94013.38;1668657;83;21058;-54
2022/08/17 07:03:29;;;;;;;10.75;8.35;;;;;;;20.58;90.73;94013.72;1658710;84;21601;-53
2022/08/17 07:06:09;;;;;;;10.58;7.95;;;;;;;20.59;90.44;94015.23;1597548;87;21066;-51
2022/08/17 07:08:55;;;;;;;14.03;9.33;;;;;;;20.65;91.56;94024.28;1563969;89;21049;-54
2022/08/17 07:11:57;;;;;;;13.08;9.58;;;;;;;20.71;92.38;94027.77;1656933;84;21334;-54
2022/08/17 07:14:51;;;;;;;13.48;10.35;;;;;;;20.79;92.94;94027.27;1652429;83;20877;-55
2022/08/17 07:17:20;;;;;;;11.95;9.60;;;;;;;20.85;92.67;94033.55;1661640;83;22847;-56
2022/08/17 07:19:50;;;;;;;12.75;9.18;;;;;;;20.94;91.76;94031.13;1647593;84;22258;-54
2022/08/17 07:22:40;;;;;;;13.78;9.28;;;;;;;21.01;91.92;94032.55;1656875;84;21066;-52
2022/08/17 07:25:10;;;;;;;12.73;8.33;;;;;;;21.09;91.80;94040.45;1651009;83;21328;-54
2022/08/17 07:27:44;;;;;;;11.33;9.20;;;;;;;21.14;91.91;94033.35;1656110;85;21840;-54
2022/08/17 07:30:30;;;;;;;13.05;11.08;;;;;;;21.18;92.13;94034.45;1666963;83;21104;-54
2022/08/17 07:33:09;;;;;;;16.05;9.50;;;;;;;21.29;92.16;94034.28;1680477;83;21081;-53
2022/08/17 07:35:39;;;;;;;13.75;9.65;;;;;;;21.34;91.71;94034.83;1680622;82;21018;-52
2022/08/17 07:38:27;;;;;;;14.00;9.18;;;;;;;21.35;91.30;94033.54;1663221;84;21285;-52
2022/08/17 07:41:01;;;;;;;10.78;8.68;;;;;;;21.39;90.87;94024.95;1679779;83;21016;-51
2022/08/17 07:43:44;;;;;;;14.60;9.53;;;;;;;21.45;89.64;94029.80;1657274;84;20996;-51
2022/08/17 07:49:32;;;;;;;12.63;8.60;;;;;;;21.45;89.01;94029.06;1675175;84;21030;-54
2022/08/17 07:52:04;;;;;;;14.53;9.98;;;;;;;21.46;88.55;94029.17;1641792;85;21240;-50
2022/08/17 07:54:36;;;;;;;13.87;10.27;;;;;;;21.51;88.08;94029.05;1660413;83;21061;-52
2022/08/17 07:57:15;;;;;;;11.90;9.55;;;;;;;21.55;88.33;94030.14;1680221;83;21727;-53
2022/08/17 08:00:02;;;;;;;12.75;8.95;;;;;;;21.62;88.04;94025.33;1671019;84;21133;-52
2022/08/17 08:02:39;;;;;;;12.35;8.95;;;;;;;21.68;87.78;94030.95;1664615;83;21127;-54
2022/08/17 08:05:18;;;;;;;11.35;8.78;;;;;;;21.74;87.68;94026.02;1664859;83;21224;-55
2022/08/17 08:08:02;;;;;;;10.55;9.45;;;;;;;21.84;87.38;94030.55;1665271;83;21058;-54
2022/08/17 08:10:40;;;;;;;20.45;9.70;;;;;;;21.91;87.20;94036.27;1668853;84;21064;-54
2022/08/17 08:13:26;;;;;;;12.18;9.33;;;;;;;21.95;87.17;94035.30;1649649;84;21470;-55
2022/08/17 08:16:20;;;;;;;11.97;9.65;;;;;;;22.02;86.68;94038.84;1664542;83;21711;-56
2022/08/17 08:18:55;;;;;;;11.40;9.40;;;;;;;22.11;86.42;94036.38;1657646;84;21119;-52
2022/08/17 08:21:30;;;;;;;11.57;9.33;;;;;;;22.22;85.45;94039.60;1646581;85;21633;-54
2022/08/17 08:24:36;;;;;;;13.68;10.15;;;;;;;22.29;85.25;94038.97;1666481;83;21067;-56
2022/08/17 08:27:25;;;;;;;15.90;11.40;;;;;;;22.43;84.36;94038.44;1655369;84;21082;-53
2022/08/17 08:30:07;;;;;;;13.62;12.10;;;;;;;22.66;82.40;94033.86;1647131;83;21455;-55
2022/08/17 08:32:58;;;;;;;12.45;9.90;;;;;;;22.82;81.64;94042.57;1640558;85;21586;-53
2022/08/17 08:35:34;;;;;;;10.98;9.20;;;;;;;22.88;80.18;94038.98;1636129;86;20998;-54
2022/08/17 08:38:24;;;;;;;12.45;9.40;;;;;;;22.82;79.42;94035.56;1607745;85;21121;-59
2022/08/17 08:41:12;;;;;;;12.65;9.73;;;;;;;22.70;79.26;94039.16;1641828;83;20985;-55
2022/08/17 08:44:03;;;;;;;11.78;9.70;;;;;;;22.49;80.96;94032.72;1623363;86;21087;-52
2022/08/17 08:46:59;;;;;;;15.60;9.53;;;;;;;22.35;81.89;94037.56;1652606;85;21170;-56
2022/08/17 08:49:53;;;;;;;18.27;11.60;;;;;;;22.22;83.71;94040.37;1658197;85;21061;-52
2022/08/17 08:52:44;;;;;;;27.48;17.27;;;;;;;22.13;85.68;94049.19;1676670;84;21042;-56
2022/08/17 08:55:33;;;;;;;18.67;11.93;;;;;;;22.09;87.17;94057.17;1664174;83;21061;-56
2022/08/17 08:58:09;;;;;;;13.18;10.18;;;;;;;22.03;87.47;94056.53;1637797;84;21074;-52
2022/08/17 09:00:42;;;;;;;15.43;11.12;;;;;;;21.91;87.26;94055.88;1651167;84;21189;-54
2022/08/17 09:03:27;;;;;;;20.20;11.83;;;;;;;21.83;87.49;94067.59;1663865;84;21093;-57
2022/08/17 09:06:02;;;;;;;16.65;12.40;;;;;;;21.74;88.36;94070.83;1669924;83;21121;-53
2022/08/17 09:08:50;;;;;;;10.78;9.23;;;;;;;21.73;89.83;94076.95;1664330;84;21117;-55
2022/08/17 09:12:12;;;;;;;13.32;10.53;;;;;;;21.65;90.08;94085.22;1659744;83;21034;-55
2022/08/17 09:15:02;;;;;;;13.10;9.98;;;;;;;21.49;90.24;94089.67;1644359;83;21311;-55
2022/08/17 09:17:46;;;;;;;11.28;9.48;;;;;;;21.36;90.66;94089.62;1628675;85;21583;-55
2022/08/17 09:20:24;;;;;;;17.85;11.88;;;;;;;21.27;90.86;94085.83;1656345;84;22389;-54
2022/08/17 09:23:06;;;;;;;16.50;11.63;;;;;;;21.23;91.47;94086.76;1653289;84;21474;-54
2022/08/17 09:26:04;;;;;;;12.65;9.50;;;;;;;21.19;92.08;94093.31;1654629;84;21521;-53
2022/08/17 09:28:37;;;;;;;11.45;10.00;;;;;;;21.13;92.60;94098.98;1653151;83;21255;-51
2022/08/17 09:31:12;;;;;;;11.40;10.20;;;;;;;21.11;92.90;94100.82;1646824;83;21068;-50
2022/08/17 09:33:43;;;;;;;13.43;11.18;;;;;;;21.13;93.22;94109.44;1659603;84;21089;-50
2022/08/17 09:36:16;;;;;;;13.32;11.08;;;;;;;21.14;93.30;94110.95;1673630;83;21039;-51
2022/08/17 09:39:15;;;;;;;15.18;10.40;;;;;;;21.13;93.58;94113.62;1666448;85;21563;-54
2022/08/17 09:42:08;;;;;;;11.45;9.15;;;;;;;21.10;93.63;94123.09;1651382;84;21290;-54
2022/08/17 09:45:09;;;;;;;13.18;10.48;;;;;;;21.02;93.72;94125.73;1674412;83;21040;-53
2022/08/17 09:47:45;;;;;;;15.60;10.45;;;;;;;20.93;94.38;94126.76;1654023;84;21013;-50
2022/08/17 09:50:45;;;;;;;15.10;13.08;;;;;;;20.84;94.94;94129.28;1641747;85;21002;-51
2022/08/17 09:53:15;;;;;;;18.40;11.97;;;;;;;20.76;95.85;94131.78;1579576;87;38072;-50
2022/08/17 09:56:04;;;;;;;14.95;10.85;;;;;;;20.67;96.43;94132.13;1583192;87;21375;-52
2022/08/17 09:59:10;;;;;;;17.48;10.40;;;;;;;20.61;97.01;94125.23;1603189;87;21679;-54
2022/08/17 10:01:44;;;;;;;12.10;10.53;;;;;;;20.55;97.32;94122.39;1635991;85;20986;-48
2022/08/17 10:04:26;;;;;;;14.55;11.20;;;;;;;20.47;98.23;94123.62;1652934;84;21244;-60
2022/08/17 10:07:25;;;;;;;17.23;11.12;;;;;;;20.45;98.85;94114.23;1625195;85;21105;-52
2022/08/17 10:10:00;;;;;;;12.43;10.75;;;;;;;20.43;98.74;94114.01;1638055;85;21625;-52
2022/08/17 10:12:59;;;;;;;15.78;11.78;;;;;;;20.34;99.10;94110.19;1645733;84;21034;-54
2022/08/17 10:15:58;;;;;;;12.03;10.58;;;;;;;20.30;99.53;94103.49;1651166;85;21119;-51
2022/08/17 10:18:39;;;;;;;11.03;9.53;;;;;;;20.27;100.00;94103.15;1655934;85;21249;-53
2022/08/17 10:27:14;;;;;;;16.70;11.28;;;;;;;20.42;100.00;94092.31;1652946;83;21138;-52
2022/08/17 10:29:54;;;;;;;17.98;12.75;;;;;;;20.61;100.00;94094.48;1671067;84;21537;-55
2022/08/17 10:32:31;;;;;;;13.32;10.30;;;;;;;20.83;100.00;94097.61;1657055;84;21077;-52
2022/08/17 10:35:33;;;;;;;12.93;10.23;;;;;;;21.11;100.00;94105.02;1649312;84;21135;-54
2022/08/17 10:38:47;;;;;;;15.87;11.70;;;;;;;21.37;100.00;94105.89;1666785;83;21168;-55
2022/08/17 10:41:32;;;;;;;33.20;20.30;;;;;;;21.72;100.00;94105.61;1662966;83;21069;-51
2022/08/17 10:44:24;;;;;;;22.48;14.50;;;;;;;22.17;99.34;94113.33;1671421;83;21193;-52
2022/08/17 10:47:14;;;;;;;12.63;10.13;;;;;;;22.55;97.58;94112.63;1667952;84;21022;-51
2022/08/17 10:49:54;;;;;;;8.73;7.78;;;;;;;23.14;95.01;94104.13;1667817;82;21211;-52
2022/08/17 10:52:33;;;;;;;13.53;8.63;;;;;;;23.82;92.06;94103.58;1660518;84;21261;-53
2022/08/17 10:55:13;;;;;;;8.95;8.03;;;;;;;24.50;86.76;94101.37;1662015;84;21065;-52
2022/08/17 10:57:48;;;;;;;9.73;8.25;;;;;;;25.30;85.24;94100.13;1651199;84;21537;-58
2022/08/17 11:00:28;;;;;;;12.33;9.35;;;;;;;26.10;77.45;94098.70;1646418;84;21200;-54
2022/08/17 11:02:56;;;;;;;13.80;9.63;;;;;;;26.76;71.73;94094.97;1657312;84;21043;-54
2022/08/17 11:06:05;;;;;;;10.10;9.08;;;;;;;27.35;69.41;94092.63;1658738;84;21179;-55
2022/08/17 11:09:07;;;;;;;10.35;9.20;;;;;;;27.65;66.75;94095.95;1621082;84;21231;-55
2022/08/17 11:11:49;;;;;;;11.93;9.43;;;;;;;27.76;65.35;94092.72;1617362;87;21138;-53
2022/08/17 11:14:43;;;;;;;11.60;9.63;;;;;;;27.65;64.82;94096.72;1658825;82;21107;-53
2022/08/17 11:17:48;;;;;;;10.18;9.18;;;;;;;27.35;64.44;94099.69;1661409;83;21081;-54
2022/08/17 11:20:31;;;;;;;12.58;8.98;;;;;;;27.04;64.40;94092.63;1642738;84;21180;-52
2022/08/17 11:23:31;;;;;;;10.43;9.20;;;;;;;26.89;64.68;94098.99;1667001;83;21226;-53
2022/08/17 11:26:02;;;;;;;10.43;9.35;;;;;;;26.86;65.73;94099.46;1673956;84;21078;-52
2022/08/17 11:28:34;;;;;;;10.58;8.63;;;;;;;26.89;66.81;94113.84;1656797;84;21045;-51
2022/08/17 11:31:09;;;;;;;7.65;6.95;;;;;;;26.84;66.51;94110.57;1658530;84;21212;-55
2022/08/17 11:33:48;;;;;;;9.55;7.80;;;;;;;26.56;66.97;94110.83;1663467;83;21213;-52
2022/08/17 11:36:37;;;;;;;10.35;7.78;;;;;;;26.25;67.41;94110.72;1621151;87;21072;-54
2022/08/17 11:39:40;;;;;;;7.58;6.05;;;;;;;25.94;68.67;94109.87;1635293;86;21525;-54
2022/08/17 11:42:25;;;;;;;6.83;6.12;;;;;;;25.77;67.69;94103.23;1666556;83;21512;-52
2022/08/17 11:45:09;;;;;;;6.95;6.25;;;;;;;25.81;67.36;94095.19;1659209;83;22376;-54
2022/08/17 11:53:56;;;;;;;7.97;6.80;;;;;;;25.62;69.06;94096.16;1672145;83;21138;-52
2022/08/17 11:56:43;;;;;;;8.00;6.33;;;;;;;25.70;68.00;94089.89;1682709;83;21566;-53
2022/08/17 11:59:35;;;;;;;7.37;5.12;;;;;;;25.71;67.39;94085.77;1658656;84;21055;-53
2022/08/17 12:02:06;;;;;;;6.47;5.17;;;;;;;25.73;67.50;94090.94;1671815;83;21110;-55
2022/08/17 12:04:34;;;;;;;7.70;5.70;;;;;;;26.14;67.82;94095.58;1657679;84;21106;-52
2022/08/17 12:07:16;;;;;;;6.00;4.75;;;;;;;26.60;66.61;94101.31;1612097;87;21372;-53
2022/08/17 12:09:46;;;;;;;6.83;5.00;;;;;;;27.20;64.23;94094.78;1614611;86;21214;-52
2022/08/17 12:12:17;;;;;;;8.08;4.90;;;;;;;27.73;64.08;94090.38;1649588;85;21126;-55
2022/08/17 12:14:50;;;;;;;5.17;4.50;;;;;;;27.98;62.22;94082.65;1662829;84;21256;-54
2022/08/17 12:17:22;;;;;;;4.78;4.10;;;;;;;28.10;60.33;94080.22;1650576;84;21009;-51
2022/08/17 12:19:51;;;;;;;7.22;4.72;;;;;;;27.94;60.46;94085.14;1648025;84;21040;-52
2022/08/17 12:22:42;;;;;;;4.70;4.00;;;;;;;27.66;60.90;94081.26;1665182;84;21097;-52
2022/08/17 12:25:14;;;;;;;5.55;4.58;;;;;;;27.22;61.42;94079.42;1653395;84;21023;-52
2022/08/17 12:27:48;;;;;;;5.30;4.72;;;;;;;26.62;64.07;94090.86;1640086;84;22655;-56
2022/08/17 12:30:19;;;;;;;11.80;4.62;;;;;;;26.14;66.03;94081.48;1653132;83;21877;-54
2022/08/17 12:32:47;;;;;;;5.75;4.50;;;;;;;25.80;68.42;94080.97;1643683;84;21691;-52